sensor_id;sensor_type;location;lat;lon;timestamp;P1;durP1;ratioP1;P2;durP2;ratioP2
20069;SDS011;10195;50.868;4.382;2023-02-03T00:01:22;14.93;;;3.70;;
20069;SDS011;10195;50.868;4.382;2023-02-03T00:03:48;11.67;;;2.73;;
20069;SDS011;10195;50.868;4.382;2023-02-03T00:06:14;10.07;;;3.10;;
20069;SDS011;10195;50.868;4.382;2023-02-03T00:08:40;12.73;;;3.87;;
20069;SDS011;10195;50.868;4.382;2023-02-03T00:11:06;13.30;;;3.10;;
20069;SDS011;10195;50.868;4.382;2023-02-03T00:13:32;11.10;;;3.53;;
20069;SDS011;10195;50.868;4.382;2023-02-03T00:15:59;12.63;;;2.93;;
20069;SDS011;10195;50.868;4.382;2023-02-03T00:18:26;16.63;;;2.93;;
20069;SDS011;10195;50.868;4.382;2023-02-03T00:20:52;15.80;;;3.60;;
20069;SDS011;10195;50.868;4.382;2023-02-03T00:23:18;11.33;;;2.50;;
20069;SDS011;10195;50.868;4.382;2023-02-03T00:25:44;17.47;;;4.07;;
20069;SDS011;10195;50.868;4.382;2023-02-03T00:28:09;13.57;;;2.80;;
20069;SDS011;10195;50.868;4.382;2023-02-03T00:30:35;12.67;;;3.70;;
20069;SDS011;10195;50.868;4.382;2023-02-03T00:33:01;11.93;;;3.03;;
20069;SDS011;10195;50.868;4.382;2023-02-03T00:35:28;12.73;;;3.20;;
20069;SDS011;10195;50.868;4.382;2023-02-03T00:37:54;10.47;;;2.50;;
20069;SDS011;10195;50.868;4.382;2023-02-03T00:40:21;14.30;;;3.30;;
20069;SDS011;10195;50.868;4.382;2023-02-03T00:42:48;10.47;;;3.10;;
20069;SDS011;10195;50.868;4.382;2023-02-03T00:45:14;11.60;;;2.70;;
20069;SDS011;10195;50.868;4.382;2023-02-03T00:47:40;14.83;;;3.07;;
20069;SDS011;10195;50.868;4.382;2023-02-03T00:50:06;15.07;;;3.27;;
20069;SDS011;10195;50.868;4.382;2023-02-03T00:52:32;11.80;;;2.77;;
20069;SDS011;10195;50.868;4.382;2023-02-03T00:54:58;14.67;;;2.93;;
20069;SDS011;10195;50.868;4.382;2023-02-03T00:57:23;13.63;;;3.00;;
20069;SDS011;10195;50.868;4.382;2023-02-03T00:59:49;14.90;;;3.30;;
20069;SDS011;10195;50.868;4.382;2023-02-03T01:02:15;10.50;;;2.93;;
20069;SDS011;10195;50.868;4.382;2023-02-03T01:04:41;12.97;;;3.60;;
20069;SDS011;10195;50.868;4.382;2023-02-03T01:07:07;13.33;;;2.67;;
20069;SDS011;10195;50.868;4.382;2023-02-03T01:09:33;14.07;;;3.37;;
20069;SDS011;10195;50.868;4.382;2023-02-03T01:12:00;11.50;;;3.07;;
20069;SDS011;10195;50.868;4.382;2023-02-03T01:14:27;12.57;;;2.37;;
20069;SDS011;10195;50.868;4.382;2023-02-03T01:16:53;16.93;;;2.93;;
20069;SDS011;10195;50.868;4.382;2023-02-03T01:19:18;14.40;;;2.70;;
20069;SDS011;10195;50.868;4.382;2023-02-03T01:21:44;14.73;;;2.90;;
20069;SDS011;10195;50.868;4.382;2023-02-03T01:24:10;13.10;;;2.60;;
20069;SDS011;10195;50.868;4.382;2023-02-03T01:26:35;8.43;;;2.40;;
20069;SDS011;10195;50.868;4.382;2023-02-03T01:29:01;10.50;;;2.93;;
20069;SDS011;10195;50.868;4.382;2023-02-03T01:31:28;16.37;;;2.93;;
20069;SDS011;10195;50.868;4.382;2023-02-03T01:34:03;17.23;;;3.07;;
20069;SDS011;10195;50.868;4.382;2023-02-03T01:36:30;8.70;;;2.37;;
20069;SDS011;10195;50.868;4.382;2023-02-03T01:38:57;13.40;;;2.40;;
20069;SDS011;10195;50.868;4.382;2023-02-03T01:41:24;16.50;;;2.80;;
20069;SDS011;10195;50.868;4.382;2023-02-03T01:43:53;10.53;;;2.83;;
20069;SDS011;10195;50.868;4.382;2023-02-03T01:46:24;16.13;;;3.13;;
20069;SDS011;10195;50.868;4.382;2023-02-03T01:49:07;11.87;;;2.73;;
20069;SDS011;10195;50.868;4.382;2023-02-03T01:51:37;20.77;;;3.40;;
20069;SDS011;10195;50.868;4.382;2023-02-03T01:54:06;13.10;;;2.37;;
20069;SDS011;10195;50.868;4.382;2023-02-03T01:56:35;20.60;;;2.87;;
20069;SDS011;10195;50.868;4.382;2023-02-03T01:59:04;8.97;;;1.63;;
20069;SDS011;10195;50.868;4.382;2023-02-03T02:01:30;13.17;;;2.10;;
20069;SDS011;10195;50.868;4.382;2023-02-03T02:03:57;6.17;;;1.97;;
20069;SDS011;10195;50.868;4.382;2023-02-03T02:06:25;10.93;;;2.07;;
20069;SDS011;10195;50.868;4.382;2023-02-03T02:08:51;13.53;;;2.90;;
20069;SDS011;10195;50.868;4.382;2023-02-03T02:11:17;10.47;;;2.70;;
20069;SDS011;10195;50.868;4.382;2023-02-03T02:13:47;11.33;;;2.70;;
20069;SDS011;10195;50.868;4.382;2023-02-03T02:16:17;13.30;;;2.80;;
20069;SDS011;10195;50.868;4.382;2023-02-03T02:32:56;15.73;;;2.87;;
20069;SDS011;10195;50.868;4.382;2023-02-03T02:38:05;10.47;;;2.40;;
20069;SDS011;10195;50.868;4.382;2023-02-03T02:40:39;12.73;;;2.63;;
20069;SDS011;10195;50.868;4.382;2023-02-03T02:43:40;10.50;;;2.33;;
20069;SDS011;10195;50.868;4.382;2023-02-03T02:46:42;13.43;;;2.60;;
20069;SDS011;10195;50.868;4.382;2023-02-03T02:49:17;6.70;;;1.93;;
20069;SDS011;10195;50.868;4.382;2023-02-03T02:51:44;11.73;;;2.60;;
20069;SDS011;10195;50.868;4.382;2023-02-03T02:54:13;15.97;;;2.50;;
20069;SDS011;10195;50.868;4.382;2023-02-03T02:56:42;10.13;;;2.00;;
20069;SDS011;10195;50.868;4.382;2023-02-03T02:59:12;10.43;;;1.93;;
20069;SDS011;10195;50.868;4.382;2023-02-03T03:01:39;9.27;;;2.37;;
20069;SDS011;10195;50.868;4.382;2023-02-03T03:04:05;10.63;;;2.30;;
20069;SDS011;10195;50.868;4.382;2023-02-03T03:06:56;8.07;;;2.10;;
20069;SDS011;10195;50.868;4.382;2023-02-03T03:09:49;13.70;;;2.00;;
20069;SDS011;10195;50.868;4.382;2023-02-03T03:12:19;11.17;;;2.10;;
20069;SDS011;10195;50.868;4.382;2023-02-03T03:14:49;11.67;;;2.33;;
20069;SDS011;10195;50.868;4.382;2023-02-03T03:17:27;23.63;;;1.70;;
20069;SDS011;10195;50.868;4.382;2023-02-03T03:20:00;8.57;;;2.23;;
20069;SDS011;10195;50.868;4.382;2023-02-03T03:22:36;15.70;;;2.53;;
20069;SDS011;10195;50.868;4.382;2023-02-03T03:25:10;10.80;;;2.07;;
20069;SDS011;10195;50.868;4.382;2023-02-03T03:27:43;9.97;;;2.07;;
20069;SDS011;10195;50.868;4.382;2023-02-03T03:30:15;12.87;;;1.90;;
20069;SDS011;10195;50.868;4.382;2023-02-03T03:32:46;11.10;;;1.90;;
20069;SDS011;10195;50.868;4.382;2023-02-03T03:35:13;9.00;;;2.43;;
20069;SDS011;10195;50.868;4.382;2023-02-03T03:37:47;7.57;;;2.03;;
20069;SDS011;10195;50.868;4.382;2023-02-03T03:40:37;9.07;;;2.70;;
20069;SDS011;10195;50.868;4.382;2023-02-03T03:43:18;14.60;;;2.20;;
20069;SDS011;10195;50.868;4.382;2023-02-03T03:45:57;11.13;;;2.30;;
20069;SDS011;10195;50.868;4.382;2023-02-03T03:48:36;10.73;;;2.20;;
20069;SDS011;10195;50.868;4.382;2023-02-03T03:51:13;13.00;;;2.13;;
20069;SDS011;10195;50.868;4.382;2023-02-03T03:53:43;8.67;;;1.80;;
20069;SDS011;10195;50.868;4.382;2023-02-03T03:56:10;9.63;;;2.00;;
20069;SDS011;10195;50.868;4.382;2023-02-03T03:58:41;8.07;;;1.93;;
20069;SDS011;10195;50.868;4.382;2023-02-03T04:01:11;13.80;;;2.27;;
20069;SDS011;10195;50.868;4.382;2023-02-03T04:03:48;10.40;;;2.10;;
20069;SDS011;10195;50.868;4.382;2023-02-03T04:06:19;12.90;;;1.90;;
20069;SDS011;10195;50.868;4.382;2023-02-03T04:08:44;7.20;;;1.33;;
20069;SDS011;10195;50.868;4.382;2023-02-03T04:11:10;7.80;;;1.70;;
20069;SDS011;10195;50.868;4.382;2023-02-03T04:13:55;6.23;;;1.33;;
20069;SDS011;10195;50.868;4.382;2023-02-03T04:16:21;9.40;;;1.87;;
20069;SDS011;10195;50.868;4.382;2023-02-03T04:18:47;6.00;;;2.00;;
20069;SDS011;10195;50.868;4.382;2023-02-03T04:21:12;8.60;;;1.87;;
20069;SDS011;10195;50.868;4.382;2023-02-03T04:23:38;10.20;;;1.43;;
20069;SDS011;10195;50.868;4.382;2023-02-03T04:26:03;9.57;;;1.90;;
20069;SDS011;10195;50.868;4.382;2023-02-03T04:28:29;7.07;;;2.17;;
20069;SDS011;10195;50.868;4.382;2023-02-03T04:30:58;6.53;;;2.00;;
20069;SDS011;10195;50.868;4.382;2023-02-03T04:33:25;10.00;;;1.93;;
20069;SDS011;10195;50.868;4.382;2023-02-03T04:35:50;8.20;;;2.17;;
20069;SDS011;10195;50.868;4.382;2023-02-03T04:38:16;7.83;;;1.70;;
20069;SDS011;10195;50.868;4.382;2023-02-03T04:40:41;6.30;;;1.70;;
20069;SDS011;10195;50.868;4.382;2023-02-03T04:43:09;9.03;;;2.03;;
20069;SDS011;10195;50.868;4.382;2023-02-03T04:45:35;8.30;;;1.97;;
20069;SDS011;10195;50.868;4.382;2023-02-03T04:48:01;8.03;;;2.03;;
20069;SDS011;10195;50.868;4.382;2023-02-03T04:50:28;5.57;;;1.67;;
20069;SDS011;10195;50.868;4.382;2023-02-03T04:52:54;7.40;;;1.50;;
20069;SDS011;10195;50.868;4.382;2023-02-03T04:55:24;6.17;;;1.90;;
20069;SDS011;10195;50.868;4.382;2023-02-03T04:57:53;6.07;;;1.60;;
20069;SDS011;10195;50.868;4.382;2023-02-03T05:00:20;8.40;;;1.63;;
20069;SDS011;10195;50.868;4.382;2023-02-03T05:02:45;9.57;;;1.50;;
20069;SDS011;10195;50.868;4.382;2023-02-03T05:05:11;7.37;;;1.50;;
20069;SDS011;10195;50.868;4.382;2023-02-03T05:07:36;4.87;;;1.30;;
20069;SDS011;10195;50.868;4.382;2023-02-03T05:10:02;16.60;;;1.67;;
20069;SDS011;10195;50.868;4.382;2023-02-03T05:12:28;13.47;;;1.90;;
20069;SDS011;10195;50.868;4.382;2023-02-03T05:14:54;8.23;;;1.70;;
20069;SDS011;10195;50.868;4.382;2023-02-03T05:17:19;6.63;;;1.50;;
20069;SDS011;10195;50.868;4.382;2023-02-03T05:19:45;9.40;;;1.87;;
20069;SDS011;10195;50.868;4.382;2023-02-03T05:22:10;8.83;;;1.90;;
20069;SDS011;10195;50.868;4.382;2023-02-03T05:24:36;9.47;;;1.43;;
20069;SDS011;10195;50.868;4.382;2023-02-03T05:27:02;5.57;;;1.63;;
20069;SDS011;10195;50.868;4.382;2023-02-03T05:29:27;4.17;;;1.30;;
20069;SDS011;10195;50.868;4.382;2023-02-03T05:31:53;6.67;;;2.10;;
20069;SDS011;10195;50.868;4.382;2023-02-03T05:34:19;7.20;;;2.13;;
20069;SDS011;10195;50.868;4.382;2023-02-03T05:36:44;8.23;;;1.77;;
20069;SDS011;10195;50.868;4.382;2023-02-03T05:39:10;9.33;;;1.30;;
20069;SDS011;10195;50.868;4.382;2023-02-03T05:41:36;8.43;;;1.37;;
20069;SDS011;10195;50.868;4.382;2023-02-03T05:44:17;5.27;;;1.40;;
20069;SDS011;10195;50.868;4.382;2023-02-03T05:46:46;9.37;;;1.57;;
20069;SDS011;10195;50.868;4.382;2023-02-03T05:49:13;9.17;;;1.83;;
20069;SDS011;10195;50.868;4.382;2023-02-03T05:51:38;7.47;;;1.50;;
20069;SDS011;10195;50.868;4.382;2023-02-03T05:54:05;5.83;;;1.50;;
20069;SDS011;10195;50.868;4.382;2023-02-03T05:56:31;6.83;;;1.50;;
20069;SDS011;10195;50.868;4.382;2023-02-03T05:58:57;10.70;;;1.70;;
20069;SDS011;10195;50.868;4.382;2023-02-03T06:01:22;8.07;;;1.50;;
20069;SDS011;10195;50.868;4.382;2023-02-03T06:03:48;6.47;;;1.57;;
20069;SDS011;10195;50.868;4.382;2023-02-03T06:06:15;11.60;;;2.03;;
20069;SDS011;10195;50.868;4.382;2023-02-03T06:08:41;7.70;;;1.70;;
20069;SDS011;10195;50.868;4.382;2023-02-03T06:11:07;10.47;;;1.80;;
20069;SDS011;10195;50.868;4.382;2023-02-03T06:13:33;9.17;;;1.87;;
20069;SDS011;10195;50.868;4.382;2023-02-03T06:15:59;12.97;;;2.17;;
20069;SDS011;10195;50.868;4.382;2023-02-03T06:18:24;9.60;;;1.90;;
20069;SDS011;10195;50.868;4.382;2023-02-03T06:20:51;9.87;;;1.70;;
20069;SDS011;10195;50.868;4.382;2023-02-03T06:23:17;9.47;;;2.03;;
20069;SDS011;10195;50.868;4.382;2023-02-03T06:25:43;12.97;;;2.13;;
20069;SDS011;10195;50.868;4.382;2023-02-03T06:28:10;11.53;;;1.80;;
20069;SDS011;10195;50.868;4.382;2023-02-03T06:30:35;12.93;;;1.60;;
20069;SDS011;10195;50.868;4.382;2023-02-03T06:33:01;9.20;;;1.70;;
20069;SDS011;10195;50.868;4.382;2023-02-03T06:35:27;6.57;;;1.90;;
20069;SDS011;10195;50.868;4.382;2023-02-03T06:37:52;5.47;;;1.20;;
20069;SDS011;10195;50.868;4.382;2023-02-03T06:40:18;10.70;;;1.63;;
20069;SDS011;10195;50.868;4.382;2023-02-03T06:42:45;11.33;;;1.90;;
20069;SDS011;10195;50.868;4.382;2023-02-03T06:45:11;6.93;;;1.80;;
20069;SDS011;10195;50.868;4.382;2023-02-03T06:47:40;11.00;;;2.03;;
20069;SDS011;10195;50.868;4.382;2023-02-03T06:50:08;11.03;;;2.30;;
20069;SDS011;10195;50.868;4.382;2023-02-03T06:52:35;8.23;;;1.97;;
20069;SDS011;10195;50.868;4.382;2023-02-03T06:55:01;7.67;;;1.73;;
20069;SDS011;10195;50.868;4.382;2023-02-03T06:57:27;6.00;;;1.30;;
20069;SDS011;10195;50.868;4.382;2023-02-03T06:59:53;8.27;;;1.90;;
20069;SDS011;10195;50.868;4.382;2023-02-03T07:02:19;5.17;;;1.73;;
20069;SDS011;10195;50.868;4.382;2023-02-03T07:04:44;7.07;;;1.87;;
20069;SDS011;10195;50.868;4.382;2023-02-03T07:07:11;3.87;;;1.57;;
20069;SDS011;10195;50.868;4.382;2023-02-03T07:09:39;10.97;;;1.33;;
20069;SDS011;10195;50.868;4.382;2023-02-03T07:12:05;5.40;;;2.23;;
20069;SDS011;10195;50.868;4.382;2023-02-03T07:14:32;8.23;;;1.63;;
20069;SDS011;10195;50.868;4.382;2023-02-03T07:17:00;9.57;;;1.67;;
20069;SDS011;10195;50.868;4.382;2023-02-03T07:19:26;7.13;;;1.50;;
20069;SDS011;10195;50.868;4.382;2023-02-03T07:21:52;7.80;;;1.80;;
20069;SDS011;10195;50.868;4.382;2023-02-03T07:24:17;10.90;;;1.87;;
20069;SDS011;10195;50.868;4.382;2023-02-03T07:26:43;11.93;;;2.10;;
20069;SDS011;10195;50.868;4.382;2023-02-03T07:29:09;3.53;;;0.97;;
20069;SDS011;10195;50.868;4.382;2023-02-03T07:31:34;6.60;;;1.60;;
20069;SDS011;10195;50.868;4.382;2023-02-03T07:34:00;13.97;;;2.47;;
20069;SDS011;10195;50.868;4.382;2023-02-03T07:36:26;8.53;;;2.10;;
20069;SDS011;10195;50.868;4.382;2023-02-03T07:38:53;7.73;;;1.97;;
20069;SDS011;10195;50.868;4.382;2023-02-03T07:41:19;11.80;;;2.60;;
20069;SDS011;10195;50.868;4.382;2023-02-03T07:43:44;9.40;;;1.87;;
20069;SDS011;10195;50.868;4.382;2023-02-03T07:46:10;11.33;;;2.03;;
20069;SDS011;10195;50.868;4.382;2023-02-03T07:48:36;9.57;;;2.30;;
20069;SDS011;10195;50.868;4.382;2023-02-03T07:51:02;7.57;;;2.20;;
20069;SDS011;10195;50.868;4.382;2023-02-03T07:53:28;8.97;;;2.00;;
20069;SDS011;10195;50.868;4.382;2023-02-03T07:55:53;7.93;;;1.63;;
20069;SDS011;10195;50.868;4.382;2023-02-03T07:58:23;8.03;;;1.87;;
20069;SDS011;10195;50.868;4.382;2023-02-03T08:00:48;2.73;;;0.93;;
20069;SDS011;10195;50.868;4.382;2023-02-03T08:03:14;8.30;;;1.63;;
20069;SDS011;10195;50.868;4.382;2023-02-03T08:05:40;8.10;;;1.80;;
20069;SDS011;10195;50.868;4.382;2023-02-03T08:08:05;8.47;;;1.83;;
20069;SDS011;10195;50.868;4.382;2023-02-03T08:10:31;15.57;;;2.53;;
20069;SDS011;10195;50.868;4.382;2023-02-03T08:12:57;6.00;;;1.70;;
20069;SDS011;10195;50.868;4.382;2023-02-03T08:15:22;11.07;;;1.93;;
20069;SDS011;10195;50.868;4.382;2023-02-03T08:17:48;7.93;;;2.30;;
20069;SDS011;10195;50.868;4.382;2023-02-03T08:20:14;10.90;;;2.60;;
20069;SDS011;10195;50.868;4.382;2023-02-03T08:22:40;6.67;;;1.47;;
20069;SDS011;10195;50.868;4.382;2023-02-03T08:25:06;7.63;;;1.87;;
20069;SDS011;10195;50.868;4.382;2023-02-03T08:27:33;11.67;;;2.13;;
20069;SDS011;10195;50.868;4.382;2023-02-03T08:30:00;6.60;;;1.70;;
20069;SDS011;10195;50.868;4.382;2023-02-03T08:32:26;8.27;;;1.73;;
20069;SDS011;10195;50.868;4.382;2023-02-03T08:34:52;6.83;;;1.70;;
20069;SDS011;10195;50.868;4.382;2023-02-03T08:37:18;10.53;;;1.83;;
20069;SDS011;10195;50.868;4.382;2023-02-03T08:39:48;9.03;;;1.90;;
20069;SDS011;10195;50.868;4.382;2023-02-03T08:42:14;6.93;;;1.60;;
20069;SDS011;10195;50.868;4.382;2023-02-03T08:44:40;10.90;;;1.87;;
20069;SDS011;10195;50.868;4.382;2023-02-03T08:47:08;19.63;;;2.27;;
20069;SDS011;10195;50.868;4.382;2023-02-03T08:49:34;23.60;;;2.50;;
20069;SDS011;10195;50.868;4.382;2023-02-03T08:52:03;5.70;;;1.43;;
20069;SDS011;10195;50.868;4.382;2023-02-03T08:54:30;6.37;;;1.70;;
20069;SDS011;10195;50.868;4.382;2023-02-03T08:56:56;8.93;;;1.87;;
20069;SDS011;10195;50.868;4.382;2023-02-03T08:59:22;7.87;;;1.90;;
20069;SDS011;10195;50.868;4.382;2023-02-03T09:01:49;15.50;;;2.43;;
20069;SDS011;10195;50.868;4.382;2023-02-03T09:04:16;7.97;;;1.90;;
20069;SDS011;10195;50.868;4.382;2023-02-03T09:06:44;4.90;;;2.07;;
20069;SDS011;10195;50.868;4.382;2023-02-03T09:09:11;5.47;;;2.60;;
20069;SDS011;10195;50.868;4.382;2023-02-03T09:11:39;13.37;;;2.20;;
20069;SDS011;10195;50.868;4.382;2023-02-03T09:14:05;6.07;;;1.53;;
20069;SDS011;10195;50.868;4.382;2023-02-03T09:16:31;7.23;;;1.87;;
20069;SDS011;10195;50.868;4.382;2023-02-03T09:18:57;11.00;;;2.03;;
20069;SDS011;10195;50.868;4.382;2023-02-03T09:21:22;9.80;;;2.00;;
20069;SDS011;10195;50.868;4.382;2023-02-03T09:23:48;6.90;;;1.97;;
20069;SDS011;10195;50.868;4.382;2023-02-03T09:26:14;10.43;;;1.80;;
20069;SDS011;10195;50.868;4.382;2023-02-03T09:28:41;8.30;;;1.97;;
20069;SDS011;10195;50.868;4.382;2023-02-03T09:31:13;8.53;;;1.87;;
20069;SDS011;10195;50.868;4.382;2023-02-03T09:33:41;7.10;;;1.77;;
20069;SDS011;10195;50.868;4.382;2023-02-03T09:36:07;6.03;;;1.80;;
20069;SDS011;10195;50.868;4.382;2023-02-03T09:38:34;11.33;;;2.30;;
20069;SDS011;10195;50.868;4.382;2023-02-03T09:43:49;12.97;;;2.43;;
20069;SDS011;10195;50.868;4.382;2023-02-03T09:46:29;6.87;;;2.23;;
20069;SDS011;10195;50.868;4.382;2023-02-03T09:49:13;5.53;;;1.90;;
20069;SDS011;10195;50.868;4.382;2023-02-03T09:51:58;12.90;;;2.23;;
20069;SDS011;10195;50.868;4.382;2023-02-03T09:57:10;10.70;;;2.33;;
20069;SDS011;10195;50.868;4.382;2023-02-03T09:59:48;4.93;;;2.00;;
20069;SDS011;10195;50.868;4.382;2023-02-03T10:07:55;8.47;;;2.17;;
20069;SDS011;10195;50.868;4.382;2023-02-03T10:13:14;11.27;;;2.83;;
20069;SDS011;10195;50.868;4.382;2023-02-03T10:15:59;6.67;;;2.27;;
20069;SDS011;10195;50.868;4.382;2023-02-03T10:18:36;8.60;;;2.50;;
20069;SDS011;10195;50.868;4.382;2023-02-03T10:21:16;8.03;;;2.20;;
20069;SDS011;10195;50.868;4.382;2023-02-03T10:23:55;8.50;;;2.73;;
20069;SDS011;10195;50.868;4.382;2023-02-03T10:26:24;9.67;;;2.53;;
20069;SDS011;10195;50.868;4.382;2023-02-03T10:31:32;7.20;;;2.40;;
20069;SDS011;10195;50.868;4.382;2023-02-03T10:34:09;8.80;;;2.30;;
20069;SDS011;10195;50.868;4.382;2023-02-03T10:39:49;10.20;;;2.40;;
20069;SDS011;10195;50.868;4.382;2023-02-03T10:42:16;18.20;;;3.50;;
20069;SDS011;10195;50.868;4.382;2023-02-03T10:44:52;14.50;;;2.63;;
20069;SDS011;10195;50.868;4.382;2023-02-03T10:47:37;13.70;;;3.37;;
20069;SDS011;10195;50.868;4.382;2023-02-03T10:50:20;10.00;;;2.67;;
20069;SDS011;10195;50.868;4.382;2023-02-03T10:52:48;6.50;;;2.00;;
20069;SDS011;10195;50.868;4.382;2023-02-03T10:57:48;8.10;;;2.30;;
20069;SDS011;10195;50.868;4.382;2023-02-03T11:03:22;12.13;;;3.30;;
20069;SDS011;10195;50.868;4.382;2023-02-03T11:06:09;10.47;;;2.30;;
20069;SDS011;10195;50.868;4.382;2023-02-03T11:08:41;6.37;;;2.57;;
20069;SDS011;10195;50.868;4.382;2023-02-03T11:11:09;8.60;;;2.13;;
20069;SDS011;10195;50.868;4.382;2023-02-03T11:13:45;6.40;;;2.20;;
20069;SDS011;10195;50.868;4.382;2023-02-03T11:16:16;10.67;;;3.17;;
20069;SDS011;10195;50.868;4.382;2023-02-03T11:18:55;7.57;;;2.83;;
20069;SDS011;10195;50.868;4.382;2023-02-03T11:26:39;7.43;;;2.37;;
20069;SDS011;10195;50.868;4.382;2023-02-03T11:29:14;11.77;;;2.80;;
20069;SDS011;10195;50.868;4.382;2023-02-03T11:31:52;8.80;;;2.33;;
20069;SDS011;10195;50.868;4.382;2023-02-03T11:34:21;4.40;;;2.87;;
20069;SDS011;10195;50.868;4.382;2023-02-03T11:36:53;9.93;;;2.57;;
20069;SDS011;10195;50.868;4.382;2023-02-03T11:39:26;11.30;;;2.80;;
20069;SDS011;10195;50.868;4.382;2023-02-03T11:41:53;7.00;;;2.80;;
20069;SDS011;10195;50.868;4.382;2023-02-03T11:44:27;8.10;;;2.67;;
20069;SDS011;10195;50.868;4.382;2023-02-03T11:47:07;5.40;;;2.23;;
20069;SDS011;10195;50.868;4.382;2023-02-03T12:10:04;6.77;;;2.77;;
20069;SDS011;10195;50.868;4.382;2023-02-03T12:12:50;11.27;;;2.97;;
20069;SDS011;10195;50.868;4.382;2023-02-03T12:15:42;10.33;;;3.00;;
20069;SDS011;10195;50.868;4.382;2023-02-03T12:24:13;8.60;;;2.67;;
20069;SDS011;10195;50.868;4.382;2023-02-03T12:26:52;9.33;;;3.10;;
20069;SDS011;10195;50.868;4.382;2023-02-03T12:29:29;8.83;;;2.60;;
20069;SDS011;10195;50.868;4.382;2023-02-03T12:32:09;12.23;;;3.20;;
20069;SDS011;10195;50.868;4.382;2023-02-03T12:34:58;8.87;;;2.80;;
20069;SDS011;10195;50.868;4.382;2023-02-03T12:37:49;6.77;;;2.77;;
20069;SDS011;10195;50.868;4.382;2023-02-03T12:40:49;8.07;;;3.57;;
20069;SDS011;10195;50.868;4.382;2023-02-03T12:49:27;8.60;;;2.77;;
20069;SDS011;10195;50.868;4.382;2023-02-03T12:52:15;9.20;;;2.90;;
20069;SDS011;10195;50.868;4.382;2023-02-03T13:00:43;7.03;;;2.87;;
20069;SDS011;10195;50.868;4.382;2023-02-03T13:04:09;9.53;;;3.37;;
20069;SDS011;10195;50.868;4.382;2023-02-03T13:06:32;8.20;;;2.83;;
20069;SDS011;10195;50.868;4.382;2023-02-03T13:14:31;7.47;;;2.70;;
20069;SDS011;10195;50.868;4.382;2023-02-03T13:17:20;11.40;;;3.07;;
20069;SDS011;10195;50.868;4.382;2023-02-03T13:20:03;8.20;;;3.10;;
20069;SDS011;10195;50.868;4.382;2023-02-03T13:22:37;12.10;;;3.23;;
20069;SDS011;10195;50.868;4.382;2023-02-03T13:25:23;12.07;;;3.33;;
20069;SDS011;10195;50.868;4.382;2023-02-03T13:36:00;9.00;;;2.90;;
20069;SDS011;10195;50.868;4.382;2023-02-03T13:41:18;10.00;;;3.50;;
20069;SDS011;10195;50.868;4.382;2023-02-03T13:43:49;14.67;;;3.50;;
20069;SDS011;10195;50.868;4.382;2023-02-03T13:46:18;8.83;;;3.20;;
20069;SDS011;10195;50.868;4.382;2023-02-03T13:48:50;7.27;;;3.30;;
20069;SDS011;10195;50.868;4.382;2023-02-03T13:51:21;10.60;;;3.50;;
20069;SDS011;10195;50.868;4.382;2023-02-03T13:53:57;8.83;;;2.80;;
20069;SDS011;10195;50.868;4.382;2023-02-03T13:56:27;9.87;;;3.13;;
20069;SDS011;10195;50.868;4.382;2023-02-03T13:58:57;10.87;;;3.20;;
20069;SDS011;10195;50.868;4.382;2023-02-03T14:01:26;14.87;;;3.70;;
20069;SDS011;10195;50.868;4.382;2023-02-03T14:03:57;15.50;;;3.23;;
20069;SDS011;10195;50.868;4.382;2023-02-03T14:09:52;11.33;;;3.23;;
20069;SDS011;10195;50.868;4.382;2023-02-03T14:14:40;7.90;;;3.57;;
20069;SDS011;10195;50.868;4.382;2023-02-03T14:17:12;11.13;;;3.33;;
20069;SDS011;10195;50.868;4.382;2023-02-03T14:19:58;8.63;;;3.30;;
20069;SDS011;10195;50.868;4.382;2023-02-03T14:22:23;9.30;;;3.63;;
20069;SDS011;10195;50.868;4.382;2023-02-03T14:24:51;7.17;;;3.27;;
20069;SDS011;10195;50.868;4.382;2023-02-03T14:30:08;6.23;;;2.97;;
20069;SDS011;10195;50.868;4.382;2023-02-03T14:32:47;7.97;;;3.30;;
20069;SDS011;10195;50.868;4.382;2023-02-03T14:35:17;12.13;;;2.93;;
20069;SDS011;10195;50.868;4.382;2023-02-03T14:38:18;8.30;;;2.80;;
20069;SDS011;10195;50.868;4.382;2023-02-03T14:43:38;8.73;;;2.50;;
20069;SDS011;10195;50.868;4.382;2023-02-03T14:48:47;7.33;;;2.70;;
20069;SDS011;10195;50.868;4.382;2023-02-03T14:51:45;6.83;;;1.87;;
20069;SDS011;10195;50.868;4.382;2023-02-03T15:02:22;9.23;;;2.33;;
20069;SDS011;10195;50.868;4.382;2023-02-03T15:04:51;6.03;;;2.63;;
20069;SDS011;10195;50.868;4.382;2023-02-03T15:07:38;4.30;;;1.77;;
20069;SDS011;10195;50.868;4.382;2023-02-03T15:10:13;4.73;;;2.27;;
20069;SDS011;10195;50.868;4.382;2023-02-03T15:12:45;7.77;;;2.50;;
20069;SDS011;10195;50.868;4.382;2023-02-03T15:15:25;6.53;;;2.50;;
20069;SDS011;10195;50.868;4.382;2023-02-03T15:17:54;9.57;;;2.90;;
20069;SDS011;10195;50.868;4.382;2023-02-03T15:23:23;6.27;;;2.40;;
20069;SDS011;10195;50.868;4.382;2023-02-03T15:26:02;4.63;;;2.20;;
20069;SDS011;10195;50.868;4.382;2023-02-03T15:28:36;6.87;;;2.03;;
20069;SDS011;10195;50.868;4.382;2023-02-03T15:31:03;6.87;;;2.13;;
20069;SDS011;10195;50.868;4.382;2023-02-03T15:33:41;3.07;;;1.67;;
20069;SDS011;10195;50.868;4.382;2023-02-03T15:36:18;3.00;;;1.73;;
20069;SDS011;10195;50.868;4.382;2023-02-03T15:38:53;3.47;;;1.90;;
20069;SDS011;10195;50.868;4.382;2023-02-03T15:41:30;4.73;;;2.17;;
20069;SDS011;10195;50.868;4.382;2023-02-03T15:44:05;5.33;;;2.10;;
20069;SDS011;10195;50.868;4.382;2023-02-03T15:46:43;2.97;;;1.73;;
20069;SDS011;10195;50.868;4.382;2023-02-03T15:49:15;6.77;;;2.10;;
20069;SDS011;10195;50.868;4.382;2023-02-03T15:52:07;3.73;;;1.93;;
20069;SDS011;10195;50.868;4.382;2023-02-03T15:54:43;4.90;;;2.57;;
20069;SDS011;10195;50.868;4.382;2023-02-03T15:57:22;6.00;;;2.70;;
20069;SDS011;10195;50.868;4.382;2023-02-03T15:59:53;8.67;;;2.40;;
20069;SDS011;10195;50.868;4.382;2023-02-03T16:02:32;4.90;;;1.77;;
20069;SDS011;10195;50.868;4.382;2023-02-03T16:05:03;8.67;;;4.00;;
20069;SDS011;10195;50.868;4.382;2023-02-03T16:07:37;5.43;;;2.50;;
20069;SDS011;10195;50.868;4.382;2023-02-03T16:10:02;15.80;;;3.07;;
20069;SDS011;10195;50.868;4.382;2023-02-03T16:12:29;5.20;;;2.70;;
20069;SDS011;10195;50.868;4.382;2023-02-03T16:14:57;4.73;;;2.20;;
20069;SDS011;10195;50.868;4.382;2023-02-03T16:22:40;4.43;;;2.63;;
20069;SDS011;10195;50.868;4.382;2023-02-03T16:25:12;9.10;;;3.03;;
20069;SDS011;10195;50.868;4.382;2023-02-03T16:27:59;6.47;;;2.37;;
20069;SDS011;10195;50.868;4.382;2023-02-03T16:33:56;8.33;;;3.50;;
20069;SDS011;10195;50.868;4.382;2023-02-03T16:36:42;9.23;;;3.23;;
20069;SDS011;10195;50.868;4.382;2023-02-03T16:39:27;11.00;;;3.40;;
20069;SDS011;10195;50.868;4.382;2023-02-03T16:42:15;6.40;;;2.63;;
20069;SDS011;10195;50.868;4.382;2023-02-03T16:45:02;11.17;;;3.23;;
20069;SDS011;10195;50.868;4.382;2023-02-03T16:47:47;6.23;;;2.63;;
20069;SDS011;10195;50.868;4.382;2023-02-03T16:50:31;7.00;;;2.80;;
20069;SDS011;10195;50.868;4.382;2023-02-03T16:53:20;11.03;;;3.67;;
20069;SDS011;10195;50.868;4.382;2023-02-03T16:55:51;7.07;;;3.20;;
20069;SDS011;10195;50.868;4.382;2023-02-03T16:58:18;10.53;;;3.30;;
20069;SDS011;10195;50.868;4.382;2023-02-03T17:00:45;9.07;;;3.67;;
20069;SDS011;10195;50.868;4.382;2023-02-03T17:03:13;8.43;;;3.30;;
20069;SDS011;10195;50.868;4.382;2023-02-03T17:05:41;7.13;;;3.27;;
20069;SDS011;10195;50.868;4.382;2023-02-03T17:08:08;7.90;;;3.37;;
20069;SDS011;10195;50.868;4.382;2023-02-03T17:10:35;7.83;;;3.33;;
20069;SDS011;10195;50.868;4.382;2023-02-03T17:13:01;6.90;;;3.43;;
20069;SDS011;10195;50.868;4.382;2023-02-03T17:15:28;9.57;;;3.53;;
20069;SDS011;10195;50.868;4.382;2023-02-03T17:17:53;7.73;;;3.63;;
20069;SDS011;10195;50.868;4.382;2023-02-03T17:20:19;9.10;;;3.70;;